sensor_id;sensor_type;location;lat;lon;timestamp;P1;durP1;ratioP1;P2;durP2;ratioP2
20705;SDS011;10514;49.468;11.044;2023-07-20T00:01:22;5.68;;;3.40;;
20705;SDS011;10514;49.468;11.044;2023-07-20T00:03:48;5.00;;;3.20;;
20705;SDS011;10514;49.468;11.044;2023-07-20T00:06:19;5.78;;;3.05;;
20705;SDS011;10514;49.468;11.044;2023-07-20T00:08:45;8.23;;;3.95;;
20705;SDS011;10514;49.468;11.044;2023-07-20T00:11:11;4.63;;;2.90;;
20705;SDS011;10514;49.468;11.044;2023-07-20T00:13:38;6.38;;;3.60;;
20705;SDS011;10514;49.468;11.044;2023-07-20T00:16:04;5.70;;;3.25;;
20705;SDS011;10514;49.468;11.044;2023-07-20T00:18:30;4.88;;;3.15;;
20705;SDS011;10514;49.468;11.044;2023-07-20T00:20:56;8.65;;;3.47;;
20705;SDS011;10514;49.468;11.044;2023-07-20T00:23:22;4.60;;;3.10;;
20705;SDS011;10514;49.468;11.044;2023-07-20T00:25:50;7.07;;;3.65;;
20705;SDS011;10514;49.468;11.044;2023-07-20T00:28:16;12.00;;;4.03;;
20705;SDS011;10514;49.468;11.044;2023-07-20T00:30:42;7.35;;;3.33;;
20705;SDS011;10514;49.468;11.044;2023-07-20T00:33:11;7.15;;;3.25;;
20705;SDS011;10514;49.468;11.044;2023-07-20T00:35:40;7.63;;;3.70;;
20705;SDS011;10514;49.468;11.044;2023-07-20T00:38:06;5.47;;;3.47;;
20705;SDS011;10514;49.468;11.044;2023-07-20T00:40:35;10.18;;;3.45;;
20705;SDS011;10514;49.468;11.044;2023-07-20T00:43:04;5.25;;;2.78;;
20705;SDS011;10514;49.468;11.044;2023-07-20T00:45:30;4.55;;;3.10;;
20705;SDS011;10514;49.468;11.044;2023-07-20T00:47:56;6.10;;;3.40;;
20705;SDS011;10514;49.468;11.044;2023-07-20T00:50:23;7.28;;;3.80;;
20705;SDS011;10514;49.468;11.044;2023-07-20T00:52:50;8.43;;;3.25;;
20705;SDS011;10514;49.468;11.044;2023-07-20T00:55:16;7.80;;;3.10;;
20705;SDS011;10514;49.468;11.044;2023-07-20T00:57:42;7.05;;;3.53;;
20705;SDS011;10514;49.468;11.044;2023-07-20T01:00:08;5.75;;;2.95;;
20705;SDS011;10514;49.468;11.044;2023-07-20T01:02:34;4.28;;;2.88;;
20705;SDS011;10514;49.468;11.044;2023-07-20T01:05:00;5.90;;;3.15;;
20705;SDS011;10514;49.468;11.044;2023-07-20T01:07:31;6.18;;;3.22;;
20705;SDS011;10514;49.468;11.044;2023-07-20T01:12:43;6.53;;;3.75;;
20705;SDS011;10514;49.468;11.044;2023-07-20T01:15:11;7.05;;;3.58;;
20705;SDS011;10514;49.468;11.044;2023-07-20T01:17:37;7.97;;;3.38;;
20705;SDS011;10514;49.468;11.044;2023-07-20T01:20:04;5.85;;;3.03;;
20705;SDS011;10514;49.468;11.044;2023-07-20T01:30:33;6.45;;;3.80;;
20705;SDS011;10514;49.468;11.044;2023-07-20T01:33:03;7.78;;;3.20;;
20705;SDS011;10514;49.468;11.044;2023-07-20T01:35:29;9.57;;;4.22;;
20705;SDS011;10514;49.468;11.044;2023-07-20T01:37:56;6.40;;;3.55;;
20705;SDS011;10514;49.468;11.044;2023-07-20T01:40:24;6.10;;;3.92;;
20705;SDS011;10514;49.468;11.044;2023-07-20T01:42:50;7.85;;;4.00;;
20705;SDS011;10514;49.468;11.044;2023-07-20T01:45:17;7.45;;;3.45;;
20705;SDS011;10514;49.468;11.044;2023-07-20T01:47:43;5.32;;;3.45;;
20705;SDS011;10514;49.468;11.044;2023-07-20T01:50:09;5.75;;;3.97;;
20705;SDS011;10514;49.468;11.044;2023-07-20T01:52:35;5.53;;;3.22;;
20705;SDS011;10514;49.468;11.044;2023-07-20T01:55:01;7.78;;;3.50;;
20705;SDS011;10514;49.468;11.044;2023-07-20T01:57:26;7.80;;;3.28;;
20705;SDS011;10514;49.468;11.044;2023-07-20T01:59:52;6.07;;;3.40;;
20705;SDS011;10514;49.468;11.044;2023-07-20T02:02:18;7.25;;;3.58;;
20705;SDS011;10514;49.468;11.044;2023-07-20T02:04:45;4.68;;;3.47;;
20705;SDS011;10514;49.468;11.044;2023-07-20T02:07:11;6.82;;;3.95;;
20705;SDS011;10514;49.468;11.044;2023-07-20T02:09:37;6.68;;;3.92;;
20705;SDS011;10514;49.468;11.044;2023-07-20T02:12:03;5.35;;;3.33;;
20705;SDS011;10514;49.468;11.044;2023-07-20T02:14:29;4.90;;;3.83;;
20705;SDS011;10514;49.468;11.044;2023-07-20T02:16:55;7.97;;;3.95;;
20705;SDS011;10514;49.468;11.044;2023-07-20T02:19:24;6.07;;;3.78;;
20705;SDS011;10514;49.468;11.044;2023-07-20T02:21:51;6.57;;;3.53;;
20705;SDS011;10514;49.468;11.044;2023-07-20T02:24:17;7.25;;;3.78;;
20705;SDS011;10514;49.468;11.044;2023-07-20T02:26:42;6.07;;;4.55;;
20705;SDS011;10514;49.468;11.044;2023-07-20T02:29:08;5.72;;;3.90;;
20705;SDS011;10514;49.468;11.044;2023-07-20T02:31:36;5.68;;;3.65;;
20705;SDS011;10514;49.468;11.044;2023-07-20T02:34:04;5.65;;;3.70;;
20705;SDS011;10514;49.468;11.044;2023-07-20T02:36:30;6.85;;;4.55;;
20705;SDS011;10514;49.468;11.044;2023-07-20T02:38:57;5.75;;;3.78;;
20705;SDS011;10514;49.468;11.044;2023-07-20T02:41:23;7.47;;;4.47;;
20705;SDS011;10514;49.468;11.044;2023-07-20T02:43:49;5.15;;;3.65;;
20705;SDS011;10514;49.468;11.044;2023-07-20T02:46:15;6.13;;;4.03;;
20705;SDS011;10514;49.468;11.044;2023-07-20T02:48:41;8.68;;;4.88;;
20705;SDS011;10514;49.468;11.044;2023-07-20T02:51:07;6.93;;;3.78;;
20705;SDS011;10514;49.468;11.044;2023-07-20T02:53:34;6.30;;;4.63;;
20705;SDS011;10514;49.468;11.044;2023-07-20T02:56:00;6.07;;;4.18;;
20705;SDS011;10514;49.468;11.044;2023-07-20T02:58:26;7.80;;;4.30;;
20705;SDS011;10514;49.468;11.044;2023-07-20T03:00:52;5.90;;;3.97;;
20705;SDS011;10514;49.468;11.044;2023-07-20T03:03:18;9.07;;;4.00;;
20705;SDS011;10514;49.468;11.044;2023-07-20T03:05:44;8.18;;;4.25;;
20705;SDS011;10514;49.468;11.044;2023-07-20T03:08:10;10.30;;;4.38;;
20705;SDS011;10514;49.468;11.044;2023-07-20T03:10:39;6.85;;;4.07;;
20705;SDS011;10514;49.468;11.044;2023-07-20T03:13:05;7.97;;;4.05;;
20705;SDS011;10514;49.468;11.044;2023-07-20T03:15:31;5.60;;;3.28;;
20705;SDS011;10514;49.468;11.044;2023-07-20T03:17:57;9.02;;;3.67;;
20705;SDS011;10514;49.468;11.044;2023-07-20T03:20:24;6.07;;;3.85;;
20705;SDS011;10514;49.468;11.044;2023-07-20T03:22:49;6.57;;;3.38;;
20705;SDS011;10514;49.468;11.044;2023-07-20T03:25:15;6.82;;;4.20;;
20705;SDS011;10514;49.468;11.044;2023-07-20T03:27:42;6.82;;;4.13;;
20705;SDS011;10514;49.468;11.044;2023-07-20T03:30:08;10.10;;;4.05;;
20705;SDS011;10514;49.468;11.044;2023-07-20T03:32:34;7.20;;;3.38;;
20705;SDS011;10514;49.468;11.044;2023-07-20T03:35:00;4.70;;;3.35;;
20705;SDS011;10514;49.468;11.044;2023-07-20T03:37:26;6.05;;;3.28;;
20705;SDS011;10514;49.468;11.044;2023-07-20T03:39:52;5.32;;;3.25;;
20705;SDS011;10514;49.468;11.044;2023-07-20T03:42:18;5.72;;;4.05;;
20705;SDS011;10514;49.468;11.044;2023-07-20T03:44:44;11.38;;;4.38;;
20705;SDS011;10514;49.468;11.044;2023-07-20T03:47:10;5.57;;;3.22;;
20705;SDS011;10514;49.468;11.044;2023-07-20T03:49:36;6.03;;;3.13;;
20705;SDS011;10514;49.468;11.044;2023-07-20T03:52:01;6.50;;;3.50;;
20705;SDS011;10514;49.468;11.044;2023-07-20T03:54:30;6.20;;;3.50;;
20705;SDS011;10514;49.468;11.044;2023-07-20T03:56:56;4.90;;;3.50;;
20705;SDS011;10514;49.468;11.044;2023-07-20T03:59:23;7.45;;;4.40;;
20705;SDS011;10514;49.468;11.044;2023-07-20T04:01:49;7.25;;;3.38;;
20705;SDS011;10514;49.468;11.044;2023-07-20T04:04:15;9.63;;;3.38;;
20705;SDS011;10514;49.468;11.044;2023-07-20T04:06:42;8.60;;;4.07;;
20705;SDS011;10514;49.468;11.044;2023-07-20T04:09:11;7.50;;;3.05;;
20705;SDS011;10514;49.468;11.044;2023-07-20T04:11:37;6.00;;;3.28;;
20705;SDS011;10514;49.468;11.044;2023-07-20T04:14:03;6.60;;;3.15;;
20705;SDS011;10514;49.468;11.044;2023-07-20T04:16:29;5.28;;;3.08;;
20705;SDS011;10514;49.468;11.044;2023-07-20T04:18:55;5.78;;;3.05;;
20705;SDS011;10514;49.468;11.044;2023-07-20T04:21:22;8.18;;;3.75;;
20705;SDS011;10514;49.468;11.044;2023-07-20T04:23:48;6.55;;;3.38;;
20705;SDS011;10514;49.468;11.044;2023-07-20T04:26:14;7.45;;;3.45;;
20705;SDS011;10514;49.468;11.044;2023-07-20T04:28:40;5.13;;;2.80;;
20705;SDS011;10514;49.468;11.044;2023-07-20T04:31:10;9.30;;;3.90;;
20705;SDS011;10514;49.468;11.044;2023-07-20T04:33:37;8.38;;;4.25;;
20705;SDS011;10514;49.468;11.044;2023-07-20T04:36:03;4.65;;;3.03;;
20705;SDS011;10514;49.468;11.044;2023-07-20T04:38:29;7.28;;;3.47;;
20705;SDS011;10514;49.468;11.044;2023-07-20T04:40:55;8.52;;;4.60;;
20705;SDS011;10514;49.468;11.044;2023-07-20T04:43:21;5.10;;;3.92;;
20705;SDS011;10514;49.468;11.044;2023-07-20T04:45:47;6.03;;;3.45;;
20705;SDS011;10514;49.468;11.044;2023-07-20T04:48:14;6.38;;;3.55;;
20705;SDS011;10514;49.468;11.044;2023-07-20T04:50:40;11.32;;;3.40;;
20705;SDS011;10514;49.468;11.044;2023-07-20T04:53:08;7.88;;;3.38;;
20705;SDS011;10514;49.468;11.044;2023-07-20T04:55:35;5.63;;;2.67;;
20705;SDS011;10514;49.468;11.044;2023-07-20T04:58:02;13.52;;;3.97;;
20705;SDS011;10514;49.468;11.044;2023-07-20T05:00:28;8.85;;;4.15;;
20705;SDS011;10514;49.468;11.044;2023-07-20T05:02:54;10.27;;;3.85;;
20705;SDS011;10514;49.468;11.044;2023-07-20T05:05:21;4.95;;;3.38;;
20705;SDS011;10514;49.468;11.044;2023-07-20T05:07:47;7.72;;;3.78;;
20705;SDS011;10514;49.468;11.044;2023-07-20T05:10:13;5.70;;;3.47;;
20705;SDS011;10514;49.468;11.044;2023-07-20T05:12:39;6.97;;;3.25;;
20705;SDS011;10514;49.468;11.044;2023-07-20T05:15:05;10.23;;;3.80;;
20705;SDS011;10514;49.468;11.044;2023-07-20T05:17:30;10.00;;;3.60;;
20705;SDS011;10514;49.468;11.044;2023-07-20T05:19:56;9.55;;;3.30;;
20705;SDS011;10514;49.468;11.044;2023-07-20T05:22:22;7.25;;;3.22;;
20705;SDS011;10514;49.468;11.044;2023-07-20T05:24:49;10.00;;;3.55;;
20705;SDS011;10514;49.468;11.044;2023-07-20T05:27:15;7.57;;;3.72;;
20705;SDS011;10514;49.468;11.044;2023-07-20T05:29:44;8.50;;;3.97;;
20705;SDS011;10514;49.468;11.044;2023-07-20T05:32:11;6.15;;;3.25;;
20705;SDS011;10514;49.468;11.044;2023-07-20T05:34:36;9.02;;;3.35;;
20705;SDS011;10514;49.468;11.044;2023-07-20T05:37:02;6.50;;;3.30;;
20705;SDS011;10514;49.468;11.044;2023-07-20T05:39:28;7.68;;;3.28;;
20705;SDS011;10514;49.468;11.044;2023-07-20T05:41:54;8.50;;;3.30;;
20705;SDS011;10514;49.468;11.044;2023-07-20T05:44:20;5.90;;;3.05;;
20705;SDS011;10514;49.468;11.044;2023-07-20T05:46:46;7.50;;;2.70;;
20705;SDS011;10514;49.468;11.044;2023-07-20T05:49:12;7.00;;;2.45;;
20705;SDS011;10514;49.468;11.044;2023-07-20T05:51:38;9.52;;;3.00;;
20705;SDS011;10514;49.468;11.044;2023-07-20T05:54:03;9.45;;;3.03;;
20705;SDS011;10514;49.468;11.044;2023-07-20T05:56:29;10.38;;;2.50;;
20705;SDS011;10514;49.468;11.044;2023-07-20T05:58:55;8.98;;;3.25;;
20705;SDS011;10514;49.468;11.044;2023-07-20T06:01:21;6.55;;;2.63;;
20705;SDS011;10514;49.468;11.044;2023-07-20T06:03:47;3.17;;;2.08;;
20705;SDS011;10514;49.468;11.044;2023-07-20T06:06:13;8.13;;;2.10;;
20705;SDS011;10514;49.468;11.044;2023-07-20T06:08:40;7.88;;;2.05;;
20705;SDS011;10514;49.468;11.044;2023-07-20T06:11:05;4.47;;;2.70;;
20705;SDS011;10514;49.468;11.044;2023-07-20T06:13:31;8.98;;;2.38;;
20705;SDS011;10514;49.468;11.044;2023-07-20T06:15:57;8.30;;;2.20;;
20705;SDS011;10514;49.468;11.044;2023-07-20T06:18:23;6.07;;;2.20;;
20705;SDS011;10514;49.468;11.044;2023-07-20T06:20:52;7.03;;;2.80;;
20705;SDS011;10514;49.468;11.044;2023-07-20T06:23:18;5.47;;;2.33;;
20705;SDS011;10514;49.468;11.044;2023-07-20T06:25:44;7.32;;;2.38;;
20705;SDS011;10514;49.468;11.044;2023-07-20T06:28:10;8.00;;;2.83;;
20705;SDS011;10514;49.468;11.044;2023-07-20T06:30:36;5.18;;;2.28;;
20705;SDS011;10514;49.468;11.044;2023-07-20T06:33:02;4.80;;;2.25;;
20705;SDS011;10514;49.468;11.044;2023-07-20T06:35:28;12.05;;;2.70;;
20705;SDS011;10514;49.468;11.044;2023-07-20T06:37:54;2.97;;;2.10;;
20705;SDS011;10514;49.468;11.044;2023-07-20T06:40:20;3.70;;;2.38;;
20705;SDS011;10514;49.468;11.044;2023-07-20T06:42:46;9.27;;;2.30;;
20705;SDS011;10514;49.468;11.044;2023-07-20T06:45:12;13.82;;;3.33;;
20705;SDS011;10514;49.468;11.044;2023-07-20T06:47:38;12.68;;;3.65;;
20705;SDS011;10514;49.468;11.044;2023-07-20T06:50:05;4.25;;;2.22;;
20705;SDS011;10514;49.468;11.044;2023-07-20T06:52:31;7.78;;;2.28;;
20705;SDS011;10514;49.468;11.044;2023-07-20T06:54:57;6.90;;;2.08;;
20705;SDS011;10514;49.468;11.044;2023-07-20T06:57:22;9.73;;;3.08;;
20705;SDS011;10514;49.468;11.044;2023-07-20T06:59:48;9.52;;;2.45;;
20705;SDS011;10514;49.468;11.044;2023-07-20T07:02:14;5.57;;;2.38;;
20705;SDS011;10514;49.468;11.044;2023-07-20T07:04:40;5.13;;;2.42;;
20705;SDS011;10514;49.468;11.044;2023-07-20T07:07:06;4.53;;;2.70;;
20705;SDS011;10514;49.468;11.044;2023-07-20T07:09:32;9.15;;;2.55;;
20705;SDS011;10514;49.468;11.044;2023-07-20T07:11:58;6.78;;;2.15;;
20705;SDS011;10514;49.468;11.044;2023-07-20T07:14:23;4.20;;;2.20;;
20705;SDS011;10514;49.468;11.044;2023-07-20T07:16:50;6.00;;;2.15;;
20705;SDS011;10514;49.468;11.044;2023-07-20T07:19:16;6.55;;;2.20;;
20705;SDS011;10514;49.468;11.044;2023-07-20T07:21:41;4.05;;;2.00;;
20705;SDS011;10514;49.468;11.044;2023-07-20T07:24:07;2.97;;;1.90;;
20705;SDS011;10514;49.468;11.044;2023-07-20T07:26:34;4.70;;;2.22;;
20705;SDS011;10514;49.468;11.044;2023-07-20T07:29:01;5.28;;;2.03;;
20705;SDS011;10514;49.468;11.044;2023-07-20T07:31:26;4.90;;;1.83;;
20705;SDS011;10514;49.468;11.044;2023-07-20T07:33:52;5.65;;;1.90;;
20705;SDS011;10514;49.468;11.044;2023-07-20T07:36:18;7.93;;;2.10;;
20705;SDS011;10514;49.468;11.044;2023-07-20T07:38:44;4.82;;;1.65;;
20705;SDS011;10514;49.468;11.044;2023-07-20T07:41:10;6.90;;;1.83;;
20705;SDS011;10514;49.468;11.044;2023-07-20T07:43:36;3.75;;;2.10;;
20705;SDS011;10514;49.468;11.044;2023-07-20T07:46:03;5.25;;;2.28;;
20705;SDS011;10514;49.468;11.044;2023-07-20T07:48:29;3.47;;;1.80;;
20705;SDS011;10514;49.468;11.044;2023-07-20T07:50:54;5.43;;;2.10;;
20705;SDS011;10514;49.468;11.044;2023-07-20T07:53:20;5.07;;;2.05;;
20705;SDS011;10514;49.468;11.044;2023-07-20T07:55:49;3.70;;;1.50;;
20705;SDS011;10514;49.468;11.044;2023-07-20T07:58:15;5.45;;;1.88;;
20705;SDS011;10514;49.468;11.044;2023-07-20T08:00:41;3.95;;;2.05;;
20705;SDS011;10514;49.468;11.044;2023-07-20T08:03:08;3.47;;;1.70;;
20705;SDS011;10514;49.468;11.044;2023-07-20T08:05:34;5.18;;;1.85;;
20705;SDS011;10514;49.468;11.044;2023-07-20T08:08:01;7.38;;;1.85;;
20705;SDS011;10514;49.468;11.044;2023-07-20T08:10:27;5.10;;;1.88;;
20705;SDS011;10514;49.468;11.044;2023-07-20T08:12:53;4.85;;;1.88;;
20705;SDS011;10514;49.468;11.044;2023-07-20T08:15:19;8.85;;;2.45;;
20705;SDS011;10514;49.468;11.044;2023-07-20T08:17:45;4.47;;;1.58;;
20705;SDS011;10514;49.468;11.044;2023-07-20T08:20:12;6.38;;;1.63;;
20705;SDS011;10514;49.468;11.044;2023-07-20T08:22:38;3.75;;;1.67;;
20705;SDS011;10514;49.468;11.044;2023-07-20T08:25:05;6.22;;;1.73;;
20705;SDS011;10514;49.468;11.044;2023-07-20T08:27:31;2.90;;;1.75;;
20705;SDS011;10514;49.468;11.044;2023-07-20T08:29:57;5.50;;;2.00;;
20705;SDS011;10514;49.468;11.044;2023-07-20T08:32:23;2.95;;;1.77;;
20705;SDS011;10514;49.468;11.044;2023-07-20T08:34:48;3.65;;;1.73;;
20705;SDS011;10514;49.468;11.044;2023-07-20T08:37:14;6.50;;;1.52;;
20705;SDS011;10514;49.468;11.044;2023-07-20T08:39:40;3.53;;;1.42;;
20705;SDS011;10514;49.468;11.044;2023-07-20T08:42:06;2.60;;;1.20;;
20705;SDS011;10514;49.468;11.044;2023-07-20T08:44:33;4.82;;;1.58;;
20705;SDS011;10514;49.468;11.044;2023-07-20T08:47:00;2.08;;;1.40;;
20705;SDS011;10514;49.468;11.044;2023-07-20T08:49:28;4.00;;;1.40;;
20705;SDS011;10514;49.468;11.044;2023-07-20T08:51:56;5.70;;;2.00;;
20705;SDS011;10514;49.468;11.044;2023-07-20T08:54:22;2.17;;;1.27;;
20705;SDS011;10514;49.468;11.044;2023-07-20T08:56:49;3.17;;;1.20;;
20705;SDS011;10514;49.468;11.044;2023-07-20T08:59:16;2.70;;;1.20;;
20705;SDS011;10514;49.468;11.044;2023-07-20T09:01:42;2.70;;;1.40;;
20705;SDS011;10514;49.468;11.044;2023-07-20T09:04:10;5.65;;;1.60;;
20705;SDS011;10514;49.468;11.044;2023-07-20T09:06:36;3.17;;;1.50;;
20705;SDS011;10514;49.468;11.044;2023-07-20T09:09:02;6.05;;;1.50;;
20705;SDS011;10514;49.468;11.044;2023-07-20T09:11:28;4.40;;;1.50;;
20705;SDS011;10514;49.468;11.044;2023-07-20T09:14:04;2.75;;;1.27;;
20705;SDS011;10514;49.468;11.044;2023-07-20T09:16:31;3.97;;;1.40;;
20705;SDS011;10514;49.468;11.044;2023-07-20T09:18:57;3.22;;;1.50;;
20705;SDS011;10514;49.468;11.044;2023-07-20T09:21:23;2.67;;;1.42;;
20705;SDS011;10514;49.468;11.044;2023-07-20T09:23:54;4.32;;;1.30;;
20705;SDS011;10514;49.468;11.044;2023-07-20T09:26:21;5.20;;;1.50;;
20705;SDS011;10514;49.468;11.044;2023-07-20T09:28:48;4.38;;;1.30;;
20705;SDS011;10514;49.468;11.044;2023-07-20T09:31:17;2.38;;;1.27;;
20705;SDS011;10514;49.468;11.044;2023-07-20T09:33:44;4.25;;;1.35;;
20705;SDS011;10514;49.468;11.044;2023-07-20T09:36:10;4.63;;;1.50;;
20705;SDS011;10514;49.468;11.044;2023-07-20T09:38:36;2.33;;;1.20;;
20705;SDS011;10514;49.468;11.044;2023-07-20T09:41:04;3.10;;;1.17;;
20705;SDS011;10514;49.468;11.044;2023-07-20T09:43:31;3.85;;;1.38;;
20705;SDS011;10514;49.468;11.044;2023-07-20T09:45:59;7.70;;;1.42;;
20705;SDS011;10514;49.468;11.044;2023-07-20T09:48:24;3.42;;;1.40;;
20705;SDS011;10514;49.468;11.044;2023-07-20T09:50:54;3.75;;;1.30;;
20705;SDS011;10514;49.468;11.044;2023-07-20T09:53:20;1.50;;;1.00;;
20705;SDS011;10514;49.468;11.044;2023-07-20T09:55:49;1.25;;;1.00;;
20705;SDS011;10514;49.468;11.044;2023-07-20T09:58:15;3.15;;;1.50;;
20705;SDS011;10514;49.468;11.044;2023-07-20T10:00:41;1.50;;;0.93;;
20705;SDS011;10514;49.468;11.044;2023-07-20T10:03:19;2.22;;;1.10;;
20705;SDS011;10514;49.468;11.044;2023-07-20T10:05:48;2.22;;;0.90;;
20705;SDS011;10514;49.468;11.044;2023-07-20T10:08:26;1.27;;;1.17;;
20705;SDS011;10514;49.468;11.044;2023-07-20T10:10:55;2.65;;;1.10;;
20705;SDS011;10514;49.468;11.044;2023-07-20T10:13:29;1.98;;;1.00;;
20705;SDS011;10514;49.468;11.044;2023-07-20T10:16:02;3.67;;;0.98;;
20705;SDS011;10514;49.468;11.044;2023-07-20T10:18:30;1.58;;;1.10;;
20705;SDS011;10514;49.468;11.044;2023-07-20T10:20:56;1.90;;;1.20;;
20705;SDS011;10514;49.468;11.044;2023-07-20T10:23:25;2.65;;;1.00;;
20705;SDS011;10514;49.468;11.044;2023-07-20T10:25:53;1.67;;;1.10;;
20705;SDS011;10514;49.468;11.044;2023-07-20T10:28:19;7.50;;;1.05;;
20705;SDS011;10514;49.468;11.044;2023-07-20T10:30:45;3.03;;;1.17;;
20705;SDS011;10514;49.468;11.044;2023-07-20T10:33:11;3.63;;;1.00;;
20705;SDS011;10514;49.468;11.044;2023-07-20T10:35:53;2.55;;;1.08;;
20705;SDS011;10514;49.468;11.044;2023-07-20T10:38:37;5.55;;;2.58;;
20705;SDS011;10514;49.468;11.044;2023-07-20T10:41:08;2.17;;;1.60;;
20705;SDS011;10514;49.468;11.044;2023-07-20T10:43:42;2.85;;;1.35;;
20705;SDS011;10514;49.468;11.044;2023-07-20T10:46:08;2.10;;;1.17;;
20705;SDS011;10514;49.468;11.044;2023-07-20T10:48:36;2.72;;;1.27;;
20705;SDS011;10514;49.468;11.044;2023-07-20T10:51:22;1.73;;;1.10;;
20705;SDS011;10514;49.468;11.044;2023-07-20T10:53:48;1.30;;;0.90;;
20705;SDS011;10514;49.468;11.044;2023-07-20T10:56:18;2.42;;;1.30;;
20705;SDS011;10514;49.468;11.044;2023-07-20T10:58:45;1.20;;;1.08;;
20705;SDS011;10514;49.468;11.044;2023-07-20T11:01:16;3.20;;;1.08;;
20705;SDS011;10514;49.468;11.044;2023-07-20T11:03:42;2.65;;;0.80;;
20705;SDS011;10514;49.468;11.044;2023-07-20T11:08:44;1.33;;;0.75;;
20705;SDS011;10514;49.468;11.044;2023-07-20T11:13:58;3.63;;;0.90;;
20705;SDS011;10514;49.468;11.044;2023-07-20T11:16:32;2.78;;;1.08;;
20705;SDS011;10514;49.468;11.044;2023-07-20T11:18:59;1.30;;;0.95;;
20705;SDS011;10514;49.468;11.044;2023-07-20T11:21:25;1.55;;;0.80;;
20705;SDS011;10514;49.468;11.044;2023-07-20T11:23:53;2.13;;;0.93;;
20705;SDS011;10514;49.468;11.044;2023-07-20T11:26:20;1.45;;;0.90;;
20705;SDS011;10514;49.468;11.044;2023-07-20T11:28:49;1.02;;;0.70;;
20705;SDS011;10514;49.468;11.044;2023-07-20T11:31:16;3.92;;;0.88;;
20705;SDS011;10514;49.468;11.044;2023-07-20T11:33:42;1.20;;;1.10;;
20705;SDS011;10514;49.468;11.044;2023-07-20T11:36:08;2.63;;;1.10;;
20705;SDS011;10514;49.468;11.044;2023-07-20T11:38:34;3.30;;;0.98;;
20705;SDS011;10514;49.468;11.044;2023-07-20T11:41:00;4.57;;;0.80;;
20705;SDS011;10514;49.468;11.044;2023-07-20T11:43:27;1.30;;;1.00;;
20705;SDS011;10514;49.468;11.044;2023-07-20T11:45:53;1.27;;;1.10;;
20705;SDS011;10514;49.468;11.044;2023-07-20T11:48:19;5.50;;;1.45;;
20705;SDS011;10514;49.468;11.044;2023-07-20T11:50:45;4.20;;;1.10;;
20705;SDS011;10514;49.468;11.044;2023-07-20T11:53:11;1.98;;;1.00;;
20705;SDS011;10514;49.468;11.044;2023-07-20T11:55:38;3.00;;;1.23;;
20705;SDS011;10514;49.468;11.044;2023-07-20T11:58:04;3.58;;;0.90;;
20705;SDS011;10514;49.468;11.044;2023-07-20T12:00:31;4.68;;;1.17;;
20705;SDS011;10514;49.468;11.044;2023-07-20T12:02:57;3.28;;;0.90;;
20705;SDS011;10514;49.468;11.044;2023-07-20T12:05:23;1.83;;;0.80;;
20705;SDS011;10514;49.468;11.044;2023-07-20T12:07:49;1.55;;;0.90;;
20705;SDS011;10514;49.468;11.044;2023-07-20T12:10:16;0.68;;;0.60;;
20705;SDS011;10514;49.468;11.044;2023-07-20T12:12:49;1.20;;;0.95;;
20705;SDS011;10514;49.468;11.044;2023-07-20T12:15:22;1.50;;;0.90;;
20705;SDS011;10514;49.468;11.044;2023-07-20T12:17:50;4.70;;;1.05;;
20705;SDS011;10514;49.468;11.044;2023-07-20T12:22:59;4.97;;;1.30;;
20705;SDS011;10514;49.468;11.044;2023-07-20T12:25:42;2.08;;;0.77;;
20705;SDS011;10514;49.468;11.044;2023-07-20T12:28:10;2.72;;;0.80;;
20705;SDS011;10514;49.468;11.044;2023-07-20T12:30:45;1.98;;;0.70;;
20705;SDS011;10514;49.468;11.044;2023-07-20T12:33:11;1.38;;;0.85;;
20705;SDS011;10514;49.468;11.044;2023-07-20T12:35:40;1.45;;;0.90;;
20705;SDS011;10514;49.468;11.044;2023-07-20T12:38:08;3.20;;;0.90;;
20705;SDS011;10514;49.468;11.044;2023-07-20T12:40:34;2.22;;;0.90;;
20705;SDS011;10514;49.468;11.044;2023-07-20T12:43:00;2.55;;;1.25;;
20705;SDS011;10514;49.468;11.044;2023-07-20T12:45:26;2.80;;;1.17;;
20705;SDS011;10514;49.468;11.044;2023-07-20T12:47:52;1.00;;;0.90;;
20705;SDS011;10514;49.468;11.044;2023-07-20T12:50:18;1.48;;;1.13;;
20705;SDS011;10514;49.468;11.044;2023-07-20T12:52:44;1.50;;;0.90;;
20705;SDS011;10514;49.468;11.044;2023-07-20T12:55:10;3.22;;;1.17;;
20705;SDS011;10514;49.468;11.044;2023-07-20T12:57:36;2.42;;;1.02;;
20705;SDS011;10514;49.468;11.044;2023-07-20T13:00:05;1.52;;;1.10;;
20705;SDS011;10514;49.468;11.044;2023-07-20T13:02:35;2.58;;;1.38;;
20705;SDS011;10514;49.468;11.044;2023-07-20T13:05:01;3.97;;;1.05;;
20705;SDS011;10514;49.468;11.044;2023-07-20T13:07:31;2.17;;;1.17;;
20705;SDS011;10514;49.468;11.044;2023-07-20T13:09:58;2.65;;;1.05;;
20705;SDS011;10514;49.468;11.044;2023-07-20T13:12:25;1.70;;;1.00;;
20705;SDS011;10514;49.468;11.044;2023-07-20T13:14:51;2.80;;;1.10;;
20705;SDS011;10514;49.468;11.044;2023-07-20T13:17:17;3.53;;;1.55;;
20705;SDS011;10514;49.468;11.044;2023-07-20T13:19:43;1.50;;;0.95;;
20705;SDS011;10514;49.468;11.044;2023-07-20T13:22:08;3.53;;;1.17;;
20705;SDS011;10514;49.468;11.044;2023-07-20T13:24:34;2.85;;;1.15;;
20705;SDS011;10514;49.468;11.044;2023-07-20T13:27:00;0.88;;;0.82;;
20705;SDS011;10514;49.468;11.044;2023-07-20T13:29:26;1.20;;;0.90;;
20705;SDS011;10514;49.468;11.044;2023-07-20T13:31:51;2.17;;;1.10;;
20705;SDS011;10514;49.468;11.044;2023-07-20T13:34:17;3.20;;;0.98;;
20705;SDS011;10514;49.468;11.044;2023-07-20T13:36:43;3.55;;;1.00;;
20705;SDS011;10514;49.468;11.044;2023-07-20T13:39:09;2.08;;;1.00;;
20705;SDS011;10514;49.468;11.044;2023-07-20T13:41:35;6.03;;;1.30;;
20705;SDS011;10514;49.468;11.044;2023-07-20T13:44:01;3.00;;;1.20;;
20705;SDS011;10514;49.468;11.044;2023-07-20T13:46:26;2.80;;;1.45;;
20705;SDS011;10514;49.468;11.044;2023-07-20T13:48:52;1.75;;;1.23;;
20705;SDS011;10514;49.468;11.044;2023-07-20T13:51:18;1.50;;;1.08;;
20705;SDS011;10514;49.468;11.044;2023-07-20T13:53:47;1.83;;;1.05;;
20705;SDS011;10514;49.468;11.044;2023-07-20T13:56:13;3.08;;;1.08;;
20705;SDS011;10514;49.468;11.044;2023-07-20T13:58:39;1.92;;;0.90;;
20705;SDS011;10514;49.468;11.044;2023-07-20T14:01:05;3.00;;;0.95;;
20705;SDS011;10514;49.468;11.044;2023-07-20T14:03:31;3.35;;;1.05;;
20705;SDS011;10514;49.468;11.044;2023-07-20T14:05:57;1.75;;;1.08;;
20705;SDS011;10514;49.468;11.044;2023-07-20T14:08:23;3.53;;;1.08;;
20705;SDS011;10514;49.468;11.044;2023-07-20T14:10:49;3.08;;;1.02;;
20705;SDS011;10514;49.468;11.044;2023-07-20T14:13:15;2.15;;;1.05;;
20705;SDS011;10514;49.468;11.044;2023-07-20T14:15:41;1.00;;;0.88;;
20705;SDS011;10514;49.468;11.044;2023-07-20T14:18:07;2.20;;;1.00;;
20705;SDS011;10514;49.468;11.044;2023-07-20T14:20:33;3.35;;;1.20;;
20705;SDS011;10514;49.468;11.044;2023-07-20T14:22:59;3.33;;;1.10;;
20705;SDS011;10514;49.468;11.044;2023-07-20T14:25:24;1.73;;;1.25;;
20705;SDS011;10514;49.468;11.044;2023-07-20T14:27:50;3.10;;;1.25;;
20705;SDS011;10514;49.468;11.044;2023-07-20T14:30:16;4.10;;;1.50;;
20705;SDS011;10514;49.468;11.044;2023-07-20T14:32:43;2.53;;;1.20;;
20705;SDS011;10514;49.468;11.044;2023-07-20T14:35:08;1.67;;;0.98;;
20705;SDS011;10514;49.468;11.044;2023-07-20T14:37:34;3.08;;;1.52;;
20705;SDS011;10514;49.468;11.044;2023-07-20T14:40:00;1.45;;;1.00;;
20705;SDS011;10514;49.468;11.044;2023-07-20T14:42:26;3.05;;;1.02;;
20705;SDS011;10514;49.468;11.044;2023-07-20T14:44:52;1.30;;;1.00;;
20705;SDS011;10514;49.468;11.044;2023-07-20T14:47:18;1.77;;;1.02;;
20705;SDS011;10514;49.468;11.044;2023-07-20T14:49:44;1.45;;;0.90;;